Record high temperature 44.9°C Record low temperature -0.3°C Record high gust 85.1 km/h Record high average 77.7 km/h Record daily rain 383.8 mm Record low windchill -4.5°C Record high barometer 1043.6 hPa Record low barometer 978.0 hPa
Daily high pressure 1012.9 mb Daily low pressure 1008.1 mb Daily low windchill 14.2°C Daily high heat index 23.3°C Daily high gust speed 37.7 kmh NW Daily high average speed 19.1 kmh WNW
Estación de MeteoMurcia.com -------- Murcia-Puente Tocinos
Ultima grabación a: 23:30 Data: 19 October 2017, time of next update: 23:40
Tiempo actualClear/Night Temperatura actual19.7°C (67.5°F) (Indice de Calor19.7°C ), Temperatura aparente 18.7°C
Temperatura máxima (desde medianoche)23.3°C at: 16:56 Temperatura mínima (desde medianoche)14.2°C at: 07:20
Velocidad media del viento (diez minutos)7.4 kmh (4.0 kts) Dirección del viento (diez minutos)SW (225°)
Indice de Calor19.7°C ráfagas maxima (última hora)17.9 kmh (9.7 kts) at: 23:20
ráfagas maxima (desde medianoche)37.7 kmh (20.4 kts) at: 18:00 Maximo media de un minuto (desde medianoche)19.1 kmh (10.3 kts) at: 15:58
Lluvia (última hora)0.0 mm Lluvia (desde medianoche)1.8 mm (0.07 in.) at 05:24
Lluvia Este mes 10.0 mm (0.39 in.) Lluvia Hasta la fecha este año204.1 mm (8.04 in.)
Lluvia máxima por minuto (última hora)0.0 mm/min Lluvia maxima por hora (últimas 6 horas)0.0 mm/hora
Lluvia de ayer 8.2 mm Punto de rocío 8.4°C (Wet Bulb :13.8°C )
Humedad 48 %, Humidex 20.3°C Barómetro corregido a msl1012.9 mb
cambio de presión+0.5 mb (última hora) Tendencia (últimas 1 hora)ESTACIONARIO
cambio de presión (últimas 12 horas)+2.2 mb cambio de presión (últimas 6 horas)+4.7 mb
Current Temp. Interna 27.2°C
Current Hum. Interna 39%


Última imagen cámara web


Weather report/warning/Metars

Alicante / El Altet, Spain (LEAL) 38-17N 000-33W 31M
Oct 19, 2017 - 05:00 PM EDT / 2017.10.19 2100 UTC
Wind: from the W (270 degrees) at 7 MPH (6 KT):0
Visibility: greater than 7 mile(s):0
Temperature: 64 F (18 C)
Dew Point: 44 F (7 C)
Relative Humidity: 48%
Pressure (altimeter): 29.91 in. Hg (1013 hPa)
ob: LEAL 192100Z 27006KT CAVOK 18/07 Q1013 NOSIG
cycle: 21
Murcia / San Javier, Spain (LELC) 37-47N 000-48W 3M
Oct 19, 2017 - 05:00 PM EDT / 2017.10.19 2100 UTC
Wind: from the W (260 degrees) at 3 MPH (3 KT):0
Visibility: greater than 7 mile(s):0
Temperature: 64 F (18 C)
Dew Point: 51 F (11 C)
Relative Humidity: 63%
Pressure (altimeter): 29.94 in. Hg (1014 hPa)
ob: LELC 192100Z 26003KT CAVOK 18/11 Q1014 NOSIG
cycle: 21
Murcia / Alcantarilla, Spain (LERI) 37-57N 001-14W 75M
Oct 19, 2017 - 02:00 PM EDT / 2017.10.19 1800 UTC
Wind: Variable at 2 MPH (2 KT):0
Visibility: greater than 7 mile(s):0
Sky conditions: mostly clear
Temperature: 68 F (20 C)
Dew Point: 44 F (7 C)
Relative Humidity: 42%
Pressure (altimeter): 29.88 in. Hg (1012 hPa)
ob: LERI 191800Z VRB02KT 9999 FEW060 20/07 Q1012 NOSIG
cycle: 18
Gerona / Costa Brava, Spain (LEGE) 41-54N 002-46E 129M
Oct 19, 2017 - 05:00 PM EDT / 2017.10.19 2100 UTC
Wind: from the NNE (030 degrees) at 5 MPH (4 KT):0
Visibility: greater than 7 mile(s):0
Sky conditions: mostly cloudy
Temperature: 60 F (16 C)
Dew Point: 60 F (16 C)
Relative Humidity: 100%
Pressure (altimeter): 29.88 in. Hg (1012 hPa)
ob: LEGE 192100Z 03004KT 9999 BKN040 16/16 Q1012
cycle: 21
Madri-Colmenar, Spain (LECV) 40-39N 003-44W
Oct 19, 2017 - 02:00 PM EDT / 2017.10.19 1800 UTC
Wind: Variable at 1 MPH (1 KT):0
Visibility: greater than 7 mile(s):0
Sky conditions: mostly clear
Temperature: 53 F (12 C)
Dew Point: 44 F (7 C)
Relative Humidity: 71%
Pressure (altimeter): 29.97 in. Hg (1015 hPa)
ob: LECV 191800Z VRB01KT 9999 FEW030 12/07 Q1015
cycle: 18
Asturias / Aviles, Spain (LEAS) 43-33N 006-02W 130M
Oct 19, 2017 - 05:00 PM EDT / 2017.10.19 2100 UTC
Wind: Variable at 2 MPH (2 KT):0
Visibility: 5 mile(s):0
Sky conditions: mostly cloudy
Temperature: 62 F (17 C)
Dew Point: 57 F (14 C)
Relative Humidity: 82%
Pressure (altimeter): 29.91 in. Hg (1013 hPa)
ob: LEAS 192100Z VRB02KT 9000 BKN035 17/14 Q1013 NOSIG
cycle: 21
Almeria / Aeropuerto, Spain (LEAM) 36-51N 002-23W 21M
Oct 19, 2017 - 05:00 PM EDT / 2017.10.19 2100 UTC
Wind: from the NNW (330 degrees) at 14 MPH (12 KT) (direction variable):0
Visibility: greater than 7 mile(s):0
Temperature: 69 F (21 C)
Dew Point: 44 F (7 C)
Relative Humidity: 40%
Pressure (altimeter): 29.94 in. Hg (1014 hPa)
ob: LEAM 192100Z AUTO 33012KT 300V010 9999 NCD 21/07 Q1014
cycle: 21
Pamplona / Noain, Spain (LEPP) 42-46N 001-38W 453M
Oct 19, 2017 - 05:00 PM EDT / 2017.10.19 2100 UTC
Wind: Variable at 1 MPH (1 KT):0
Visibility: greater than 7 mile(s):0
Sky conditions: mostly clear
Temperature: 51 F (11 C)
Dew Point: 48 F (9 C)
Relative Humidity: 87%
Pressure (altimeter): 29.97 in. Hg (1015 hPa)
ob: LEPP 192100Z VRB01KT 9999 FEW030 11/09 Q1015
cycle: 21
Badajoz / Talavera La Real, Spain (LEBZ) 38-53N 006-49W 192M
Oct 19, 2017 - 03:00 PM EDT / 2017.10.19 1900 UTC
Wind: from the W (270 degrees) at 6 MPH (5 KT):0
Visibility: greater than 7 mile(s):0
Sky conditions: mostly clear
Temperature: 64 F (18 C)
Dew Point: 57 F (14 C)
Relative Humidity: 77%
Pressure (altimeter): 30.03 in. Hg (1017 hPa)
ob: LEBZ 191900Z 27005KT 9999 FEW040 18/14 Q1017
cycle: 19
Albacete / Los Llanos, Spain (LEAB) 38-57N 001-51W 704M
Oct 19, 2017 - 05:00 PM EDT / 2017.10.19 2100 UTC
Wind: from the W (280 degrees) at 7 MPH (6 KT):0
Visibility: greater than 7 mile(s):0
Temperature: 50 F (10 C)
Dew Point: 42 F (6 C)
Relative Humidity: 76%
Pressure (altimeter): 30.03 in. Hg (1017 hPa)
ob: LEAB 192100Z 28006KT CAVOK 10/06 Q1017 NOSIG
cycle: 21



La informacion se graba a intervalos de 2 minutos, pero hay info grabada cada minuto. Optimizado para 800*600 y Color verdadero. Use el boton de

Use the RECARGA en su navegador para recojer la ulima info.

Clicar aquí para regarga diaria de medias/extremas del mes














Created by "Weather Display" software version 10.37S at this start time/date 0:52:30 06/10/2017

La estación de MeteoMurcia.com, publica sus datos en los siguientes proyectos:

Meteoclimatic www.awekas.at

W3Counter
Web Analytics